Time;durP1;ratioP1;P1;durP2;ratioP2;P2;SDS_P1;SDS_P2;PMS_P1;PMS_P2;Temp;Humidity;BMP_temperature;BMP_pressure;BME280_temperature;BME280_humidity;BME280_pressure;Samples;Min_cycle;Max_cycle;Signal;HPM_P1;HPM_P2
2022/10/16 00:01:51;;;;;;;1.63;0.82;;;11.50;98.10;;;;;;4788773;29;20106;-84
2022/10/16 00:04:19;;;;;;;1.58;0.60;;;11.50;98.10;;;;;;4788766;29;20056;-84
2022/10/16 00:06:53;;;;;;;0.80;0.43;;;11.40;98.10;;;;;;4788714;29;20108;-85
2022/10/16 00:09:22;;;;;;;3.13;0.45;;;11.40;98.20;;;;;;4788873;29;20134;-84
2022/10/16 00:11:50;;;;;;;1.02;0.60;;;11.30;98.20;;;;;;4789061;29;20050;-85
2022/10/16 00:14:17;;;;;;;1.20;0.65;;;11.30;98.20;;;;;;4788526;29;20496;-84
2022/10/16 00:16:44;;;;;;;1.58;0.60;;;11.30;98.20;;;;;;4788645;29;20055;-85
2022/10/16 00:19:12;;;;;;;2.83;0.85;;;11.30;98.20;;;;;;4788454;29;20087;-84
2022/10/16 00:21:39;;;;;;;1.52;0.88;;;11.40;98.30;;;;;;4773444;29;20066;-84
2022/10/16 00:24:08;;;;;;;1.70;0.70;;;11.40;98.30;;;;;;4788080;29;20055;-84
2022/10/16 00:26:36;;;;;;;1.70;0.60;;;11.50;98.20;;;;;;4788151;29;20421;-85
2022/10/16 00:29:07;;;;;;;2.70;0.85;;;11.50;98.20;;;;;;4787920;29;20100;-84
2022/10/16 00:31:34;;;;;;;2.00;0.73;;;11.60;98.10;;;;;;4788082;29;20394;-84
2022/10/16 00:34:01;;;;;;;1.30;0.60;;;11.60;98.00;;;;;;4788133;29;20382;-84
2022/10/16 00:36:32;;;;;;;2.47;0.63;;;11.60;98.00;;;;;;4788496;29;20258;-84
2022/10/16 00:39:03;;;;;;;;;;;11.60;98.00;;;;;;4788011;29;20501;-84
2022/10/16 00:41:32;;;;;;;1.33;0.50;;;11.50;98.00;;;;;;4788139;29;20539;-85
2022/10/16 00:44:03;;;;;;;1.67;0.40;;;11.50;98.10;;;;;;4773260;29;20055;-85
2022/10/16 00:46:39;;;;;;;0.98;0.50;;;11.50;98.30;;;;;;4788245;29;20059;-84
2022/10/16 00:49:14;;;;;;;1.67;0.50;;;11.50;98.00;;;;;;4777677;30;20055;-84
2022/10/16 00:51:46;;;;;;;3.53;1.00;;;11.50;98.00;;;;;;4784107;29;20055;-84
2022/10/16 00:54:25;;;;;;;;;;;11.50;98.10;;;;;;4788402;29;20082;-84
2022/10/16 00:56:56;;;;;;;1.35;0.60;;;11.50;98.10;;;;;;4788150;29;19929;-84
2022/10/16 00:59:28;;;;;;;3.78;0.80;;;11.50;98.10;;;;;;4787948;29;20059;-85
2022/10/16 01:02:02;;;;;;;3.00;0.80;;;11.60;98.10;;;;;;4772582;29;20051;-85
2022/10/16 01:04:50;;;;;;;2.35;0.70;;;11.60;97.90;;;;;;4787210;29;20063;-85
2022/10/16 01:07:27;;;;;;;3.47;0.63;;;11.60;97.90;;;;;;4787449;29;20058;-85
2022/10/16 01:09:54;;;;;;;1.63;0.80;;;11.60;98.00;;;;;;4776687;29;20055;-84
2022/10/16 01:12:31;;;;;;;1.60;0.70;;;11.60;98.00;;;;;;4787482;29;20044;-84
2022/10/16 01:15:25;;;;;;;1.50;0.60;;;11.60;97.90;;;;;;4787899;29;20071;-84
2022/10/16 01:18:03;;;;;;;2.55;0.50;;;11.50;98.00;;;;;;4787736;29;20442;-84
2022/10/16 01:21:00;;;;;;;1.42;0.50;;;11.50;98.00;;;;;;4781501;29;20081;-85
2022/10/16 01:23:53;;;;;;;1.20;0.45;;;11.50;98.10;;;;;;4787193;29;20051;-84
2022/10/16 01:26:37;;;;;;;1.45;0.60;;;11.40;98.10;;;;;;4784659;30;20048;-84
2022/10/16 01:29:15;;;;;;;1.52;0.68;;;11.40;98.00;;;;;;4787028;29;20094;-84
2022/10/16 01:31:47;;;;;;;1.17;0.50;;;11.40;98.00;;;;;;4787173;29;20083;-84
2022/10/16 01:34:36;;;;;;;1.35;0.65;;;11.40;98.10;;;;;;4787222;29;20055;-84
2022/10/16 01:37:14;;;;;;;1.50;0.63;;;11.50;98.10;;;;;;4772265;30;20047;-84
2022/10/16 01:39:45;;;;;;;1.77;0.68;;;11.50;98.10;;;;;;4787144;29;20059;-84
2022/10/16 01:42:18;;;;;;;1.65;0.73;;;11.50;98.00;;;;;;4787042;29;20173;-84
2022/10/16 01:44:48;;;;;;;1.63;0.63;;;11.60;98.00;;;;;;4787267;29;20481;-83
2022/10/16 01:47:17;;;;;;;1.38;0.52;;;11.50;98.00;;;;;;4786949;29;20105;-84
2022/10/16 01:49:45;;;;;;;3.13;0.85;;;11.60;98.00;;;;;;4771531;29;20051;-84
2022/10/16 01:52:20;;;;;;;1.00;0.70;;;11.60;98.00;;;;;;4774555;29;20450;-84
2022/10/16 01:54:52;;;;;;;1.45;0.52;;;11.60;98.00;;;;;;4786921;29;20134;-84
2022/10/16 01:57:21;;;;;;;0.73;0.40;;;11.70;98.00;;;;;;4786941;29;20389;-84
2022/10/16 01:59:54;;;;;;;1.85;0.70;;;11.70;98.00;;;;;;4786787;29;20059;-84
2022/10/16 02:02:26;;;;;;;;;;;11.80;97.90;;;;;;4787450;29;20099;-84
2022/10/16 02:05:04;;;;;;;;;;;11.80;97.80;;;;;;4787421;29;19932;-84
2022/10/16 02:07:31;;;;;;;0.60;0.35;;;11.80;98.10;;;;;;4798366;29;19925;-84
2022/10/16 02:10:00;;;;;;;2.13;0.47;;;11.80;97.80;;;;;;4786889;29;20071;-85
2022/10/16 02:12:33;;;;;;;0.98;0.43;;;11.80;97.80;;;;;;4787065;29;20418;-85
2022/10/16 02:15:00;;;;;;;1.48;0.50;;;11.80;97.80;;;;;;4786775;29;20078;-84
2022/10/16 02:17:28;;;;;;;1.38;0.50;;;11.80;97.80;;;;;;4786651;29;20128;-84
2022/10/16 02:19:57;;;;;;;1.52;0.60;;;11.90;97.80;;;;;;4786726;29;20089;-84
2022/10/16 02:22:32;;;;;;;1.30;0.50;;;11.90;97.80;;;;;;4786865;29;20477;-83
2022/10/16 02:25:31;;;;;;;2.08;0.50;;;12.00;97.70;;;;;;4774065;29;20128;-84
2022/10/16 02:28:22;;;;;;;1.20;0.52;;;12.00;97.70;;;;;;4786245;29;20051;-84
2022/10/16 02:30:56;;;;;;;1.05;0.47;;;12.00;97.60;;;;;;4786594;29;20146;-86
2022/10/16 02:33:25;;;;;;;2.38;0.50;;;12.00;97.70;;;;;;4786579;29;20463;-86
2022/10/16 02:35:54;;;;;;;1.30;0.50;;;12.00;97.70;;;;;;4786510;29;20055;-84
2022/10/16 02:38:22;;;;;;;1.92;0.63;;;11.90;97.70;;;;;;4786531;30;20489;-84
2022/10/16 02:40:50;;;;;;;2.88;0.60;;;12.00;97.70;;;;;;4786527;29;20436;-84
2022/10/16 02:43:17;;;;;;;1.00;0.50;;;11.90;97.70;;;;;;4786541;29;20156;-84
2022/10/16 02:45:44;;;;;;;1.58;0.60;;;11.90;97.70;;;;;;4786359;29;20059;-84
2022/10/16 02:48:11;;;;;;;2.20;0.60;;;11.90;97.80;;;;;;4786182;29;20055;-84
2022/10/16 02:50:38;;;;;;;1.63;0.50;;;11.90;97.80;;;;;;4786283;30;20516;-83
2022/10/16 02:53:05;;;;;;;2.17;0.50;;;11.90;97.70;;;;;;4786287;29;20108;-84
2022/10/16 02:55:32;;;;;;;1.23;0.47;;;11.90;97.70;;;;;;4786533;29;20134;-84
2022/10/16 02:57:59;;;;;;;3.65;0.60;;;11.80;97.80;;;;;;4775337;29;20051;-84
2022/10/16 03:00:26;;;;;;;0.57;0.30;;;11.80;97.80;;;;;;4786529;29;20051;-83
2022/10/16 03:02:54;;;;;;;0.82;0.45;;;11.70;97.80;;;;;;4788765;29;20085;-84
2022/10/16 03:05:21;;;;;;;2.38;0.50;;;11.70;97.90;;;;;;4767031;29;20525;-83
2022/10/16 03:07:52;;;;;;;0.88;0.43;;;11.70;98.00;;;;;;4789740;29;20066;-84
2022/10/16 03:10:19;;;;;;;1.15;0.40;;;11.70;98.00;;;;;;4789654;29;20043;-84
2022/10/16 03:12:48;;;;;;;1.02;0.40;;;11.80;97.90;;;;;;4789511;29;20389;-83
2022/10/16 03:15:15;;;;;;;1.65;0.40;;;11.80;97.90;;;;;;4789657;29;20473;-83
2022/10/16 03:17:43;;;;;;;1.52;0.50;;;11.80;97.90;;;;;;4789506;29;20111;-83
2022/10/16 03:20:12;;;;;;;1.83;0.50;;;11.80;98.00;;;;;;4789253;30;20058;-83
2022/10/16 03:22:39;;;;;;;1.10;0.38;;;11.90;97.80;;;;;;4789444;29;20054;-84
2022/10/16 03:25:08;;;;;;;1.30;0.50;;;11.90;97.80;;;;;;4789471;29;20059;-83
2022/10/16 03:27:35;;;;;;;0.98;0.40;;;11.90;97.80;;;;;;4789695;29;20070;-84
2022/10/16 03:30:03;;;;;;;0.68;0.30;;;11.80;97.80;;;;;;4789440;29;20051;-83
2022/10/16 03:32:30;;;;;;;1.35;0.50;;;11.80;97.80;;;;;;4789339;29;20531;-84
2022/10/16 03:34:57;;;;;;;1.15;0.43;;;11.80;97.80;;;;;;4789581;29;20138;-84
2022/10/16 03:37:24;;;;;;;1.15;0.52;;;11.80;97.80;;;;;;4789126;29;20063;-83
2022/10/16 03:39:52;;;;;;;1.00;0.40;;;11.90;97.80;;;;;;4789241;29;20047;-83
2022/10/16 03:42:19;;;;;;;1.55;0.60;;;11.90;97.80;;;;;;4789209;29;20059;-83
2022/10/16 03:44:49;;;;;;;1.20;0.40;;;11.90;97.80;;;;;;4789388;29;20060;-83
2022/10/16 03:47:20;;;;;;;1.92;0.60;;;11.80;97.70;;;;;;4789097;29;20109;-83
2022/10/16 03:49:48;;;;;;;2.28;0.45;;;11.80;97.80;;;;;;4789103;29;20090;-84
2022/10/16 03:52:15;;;;;;;0.85;0.45;;;11.80;97.80;;;;;;4789027;29;20055;-83
2022/10/16 03:54:42;;;;;;;1.20;0.50;;;11.80;97.80;;;;;;4788883;29;20108;-84
2022/10/16 03:57:09;;;;;;;1.55;0.50;;;11.80;97.80;;;;;;4788902;29;20105;-83
2022/10/16 03:59:36;;;;;;;2.10;0.50;;;11.80;97.80;;;;;;4788888;29;20055;-84
2022/10/16 04:02:03;;;;;;;1.20;0.40;;;11.80;97.80;;;;;;4788688;29;20093;-83
2022/10/16 04:04:30;;;;;;;0.82;0.38;;;11.80;97.90;;;;;;4788275;29;20117;-83
2022/10/16 04:06:57;;;;;;;2.35;0.70;;;11.80;97.80;;;;;;4788486;29;20608;-84
2022/10/16 04:09:24;;;;;;;1.92;0.40;;;11.80;97.80;;;;;;4788407;29;20051;-84
2022/10/16 04:11:51;;;;;;;1.25;0.50;;;11.80;97.80;;;;;;4788736;29;20087;-84
2022/10/16 04:14:18;;;;;;;0.95;0.38;;;11.80;97.80;;;;;;4787504;29;20055;-83
2022/10/16 04:16:45;;;;;;;1.00;0.50;;;11.80;97.90;;;;;;4788642;29;20055;-84
2022/10/16 04:19:13;;;;;;;1.50;0.57;;;11.90;97.90;;;;;;4788415;29;20052;-83
2022/10/16 04:21:40;;;;;;;1.10;0.40;;;11.90;97.80;;;;;;4788533;30;20051;-83
2022/10/16 04:24:11;;;;;;;0.88;0.35;;;12.00;97.80;;;;;;4788399;29;20047;-83
2022/10/16 04:26:38;;;;;;;1.00;0.32;;;12.00;97.70;;;;;;4788439;29;20055;-83
2022/10/16 04:29:06;;;;;;;0.70;0.35;;;12.00;97.70;;;;;;4788579;29;20051;-84
2022/10/16 04:31:33;;;;;;;1.63;0.30;;;12.10;97.70;;;;;;4788414;29;20048;-83
2022/10/16 04:34:00;;;;;;;2.35;0.43;;;12.10;97.60;;;;;;4788517;29;20051;-84
2022/10/16 04:36:27;;;;;;;1.00;0.50;;;12.20;97.60;;;;;;4789816;29;20054;-84
2022/10/16 04:38:55;;;;;;;1.13;0.50;;;12.20;97.60;;;;;;4788096;29;20054;-83
2022/10/16 04:41:22;;;;;;;2.45;1.08;;;12.30;97.60;;;;;;4788411;29;20062;-84
2022/10/16 04:43:49;;;;;;;1.08;0.57;;;12.30;97.50;;;;;;4788134;29;20055;-84
2022/10/16 04:46:16;;;;;;;1.75;0.40;;;12.40;97.50;;;;;;4788102;29;20396;-83
2022/10/16 04:48:43;;;;;;;1.60;0.52;;;12.30;97.40;;;;;;4788041;29;20108;-83
2022/10/16 04:51:10;;;;;;;1.42;0.50;;;12.30;97.50;;;;;;4787890;29;20043;-84
2022/10/16 04:53:37;;;;;;;1.50;0.60;;;12.20;97.40;;;;;;4788022;29;20055;-83
2022/10/16 04:56:05;;;;;;;1.35;0.52;;;12.20;97.50;;;;;;4787751;29;20415;-83
2022/10/16 04:58:32;;;;;;;1.48;0.85;;;12.20;97.50;;;;;;4787717;29;20142;-84
2022/10/16 05:00:59;;;;;;;1.40;0.50;;;12.20;97.90;;;;;;4787877;29;20063;-83
2022/10/16 05:03:26;;;;;;;0.93;0.30;;;12.20;97.90;;;;;;4788053;29;20065;-83
2022/10/16 05:05:53;;;;;;;1.30;0.40;;;12.30;97.60;;;;;;4787757;30;20056;-84
2022/10/16 05:08:20;;;;;;;0.90;0.32;;;12.30;97.60;;;;;;4787702;29;20137;-83
2022/10/16 05:10:47;;;;;;;1.17;0.50;;;12.20;97.50;;;;;;4787495;29;20051;-83
2022/10/16 05:13:14;;;;;;;0.73;0.30;;;12.20;97.50;;;;;;4787822;29;20043;-84
2022/10/16 05:15:41;;;;;;;0.57;0.30;;;12.20;97.50;;;;;;4787614;29;20465;-84
2022/10/16 05:18:09;;;;;;;0.68;0.20;;;12.10;97.60;;;;;;4787776;29;20047;-84
2022/10/16 05:20:36;;;;;;;0.70;0.38;;;12.00;97.60;;;;;;4773103;30;20063;-84
2022/10/16 05:23:03;;;;;;;0.85;0.38;;;12.00;97.70;;;;;;4787798;29;20062;-84
2022/10/16 05:25:30;;;;;;;1.45;0.30;;;11.90;97.70;;;;;;4787216;29;20059;-84
2022/10/16 05:27:57;;;;;;;0.65;0.40;;;11.90;97.80;;;;;;4787663;29;20051;-84
2022/10/16 05:30:24;;;;;;;1.13;0.40;;;11.80;97.80;;;;;;4787153;29;20051;-85
2022/10/16 05:32:55;;;;;;;0.47;0.30;;;11.80;97.80;;;;;;4787195;29;20074;-84
2022/10/16 05:35:22;;;;;;;0.70;0.30;;;11.70;97.80;;;;;;4787283;29;20055;-84
2022/10/16 05:37:49;;;;;;;2.53;0.32;;;11.70;97.90;;;;;;4772017;29;20047;-84
2022/10/16 05:40:16;;;;;;;0.52;0.40;;;11.60;97.90;;;;;;4787121;29;20090;-84
2022/10/16 05:42:43;;;;;;;1.13;0.30;;;11.60;97.90;;;;;;4786971;29;20062;-84
2022/10/16 05:45:12;;;;;;;0.95;0.35;;;11.60;97.90;;;;;;4786878;29;20054;-84
2022/10/16 05:47:39;;;;;;;0.73;0.38;;;11.50;98.00;;;;;;4786737;29;20429;-84
2022/10/16 05:50:07;;;;;;;0.60;0.40;;;11.50;98.30;;;;;;4786622;29;20074;-84
2022/10/16 05:52:34;;;;;;;0.70;0.40;;;11.50;98.00;;;;;;4787110;29;20104;-84
2022/10/16 05:55:01;;;;;;;2.42;0.30;;;11.40;98.00;;;;;;4786757;29;20146;-84
2022/10/16 05:57:28;;;;;;;0.93;0.50;;;11.40;98.10;;;;;;4786707;29;20066;-84
2022/10/16 05:59:55;;;;;;;1.77;0.50;;;11.40;98.20;;;;;;4787070;29;20051;-84
2022/10/16 06:02:22;;;;;;;0.93;0.40;;;11.50;98.10;;;;;;4786810;29;20055;-84
2022/10/16 06:04:52;;;;;;;0.90;0.40;;;11.40;98.30;;;;;;4786592;29;20055;-83
2022/10/16 06:07:20;;;;;;;1.08;0.40;;;11.40;98.10;;;;;;4786750;29;20126;-82
2022/10/16 06:09:51;;;;;;;1.70;0.50;;;11.40;98.00;;;;;;4786591;29;20056;-86
2022/10/16 06:12:20;;;;;;;0.70;0.30;;;11.40;98.10;;;;;;4786454;29;20055;-83
2022/10/16 06:14:50;;;;;;;0.77;0.40;;;11.40;98.10;;;;;;4774354;29;20051;-83
2022/10/16 06:17:17;;;;;;;1.02;0.30;;;11.40;98.20;;;;;;4786530;29;20141;-82
2022/10/16 06:19:44;;;;;;;0.68;0.30;;;11.40;98.10;;;;;;4786642;29;20047;-82
2022/10/16 06:22:12;;;;;;;1.45;0.70;;;11.40;98.10;;;;;;4786403;29;20043;-82
2022/10/16 06:24:39;;;;;;;0.57;0.35;;;11.50;98.10;;;;;;4786401;29;20059;-88
2022/10/16 06:27:06;;;;;;;0.57;0.30;;;11.60;98.10;;;;;;4786639;29;20557;-84
2022/10/16 06:29:33;;;;;;;1.35;0.40;;;11.70;98.00;;;;;;4786259;29;20071;-84
2022/10/16 06:32:00;;;;;;;1.00;0.38;;;11.70;97.90;;;;;;4786489;29;20055;-86
2022/10/16 06:34:27;;;;;;;0.75;0.30;;;11.80;97.90;;;;;;4786439;29;20047;-85
2022/10/16 06:36:55;;;;;;;0.70;0.38;;;11.80;97.80;;;;;;4771237;29;20086;-85
2022/10/16 06:39:22;;;;;;;1.02;0.40;;;11.90;97.80;;;;;;4771606;29;20058;-85
2022/10/16 06:41:49;;;;;;;1.15;0.55;;;12.00;97.80;;;;;;4786196;29;20068;-86
2022/10/16 06:44:19;;;;;;;1.65;0.73;;;12.00;97.70;;;;;;4786615;29;20100;-85
2022/10/16 06:46:46;;;;;;;1.85;1.00;;;12.10;97.70;;;;;;4786343;29;20073;-85
2022/10/16 06:49:15;;;;;;;1.50;0.52;;;12.20;97.60;;;;;;4785967;29;20543;-84
2022/10/16 06:51:42;;;;;;;1.83;0.65;;;12.30;97.50;;;;;;4786329;29;20054;-84
2022/10/16 06:54:09;;;;;;;1.73;0.70;;;12.40;97.40;;;;;;4771162;30;20050;-85
2022/10/16 06:56:38;;;;;;;3.03;0.52;;;12.40;97.40;;;;;;4786213;29;20058;-84
2022/10/16 06:59:05;;;;;;;1.95;0.60;;;12.50;97.40;;;;;;4785985;29;20073;-85
2022/10/16 07:01:33;;;;;;;1.10;0.60;;;12.60;97.30;;;;;;4785901;30;20056;-85
2022/10/16 07:04:01;;;;;;;2.15;0.60;;;12.60;97.30;;;;;;4789296;29;20043;-85
2022/10/16 07:06:34;;;;;;;1.40;0.52;;;12.70;97.20;;;;;;4786036;30;20049;-86
2022/10/16 07:09:06;;;;;;;1.50;0.50;;;12.70;97.20;;;;;;4786420;29;20677;-86
2022/10/16 07:11:34;;;;;;;2.50;0.82;;;12.80;97.20;;;;;;4786003;29;20051;-85
2022/10/16 07:14:12;;;;;;;2.08;0.60;;;12.80;97.20;;;;;;4785755;29;20142;-85
2022/10/16 07:16:39;;;;;;;2.58;0.65;;;12.90;97.10;;;;;;4780248;30;20047;-85
2022/10/16 07:19:06;;;;;;;1.23;0.50;;;12.90;97.10;;;;;;4785936;29;20159;-86
2022/10/16 07:21:37;;;;;;;2.22;0.50;;;13.00;97.10;;;;;;4785513;30;20477;-85
2022/10/16 07:24:07;;;;;;;1.67;0.60;;;13.00;97.00;;;;;;4786074;29;20051;-86
2022/10/16 07:26:36;;;;;;;1.60;0.68;;;13.10;97.00;;;;;;4785872;29;20062;-85
2022/10/16 07:29:17;;;;;;;2.80;0.50;;;13.10;97.00;;;;;;4785905;29;20055;-84
2022/10/16 07:31:44;;;;;;;2.17;0.55;;;13.10;96.90;;;;;;4785848;29;20497;-83
2022/10/16 07:34:14;;;;;;;1.58;0.60;;;13.10;97.00;;;;;;4786043;29;20104;-83
2022/10/16 07:36:41;;;;;;;2.45;0.95;;;13.20;97.00;;;;;;4786070;29;20078;-84
2022/10/16 07:39:08;;;;;;;2.28;0.88;;;13.20;96.90;;;;;;4785978;29;20055;-84
2022/10/16 07:41:36;;;;;;;6.60;1.00;;;13.30;96.90;;;;;;4785651;29;20063;-84
2022/10/16 07:44:07;;;;;;;1.52;0.60;;;13.40;96.80;;;;;;4785778;29;20112;-84
2022/10/16 07:46:35;;;;;;;8.82;1.50;;;13.50;96.80;;;;;;4785788;29;20108;-85
2022/10/16 07:49:03;;;;;;;3.03;1.30;;;13.50;96.70;;;;;;4787095;29;20066;-84
2022/10/16 07:51:32;;;;;;;3.10;1.42;;;13.50;96.90;;;;;;4789153;29;20163;-87
2022/10/16 07:53:59;;;;;;;2.10;0.93;;;13.60;96.70;;;;;;4789586;29;20108;-89
2022/10/16 07:56:26;;;;;;;3.28;1.10;;;13.70;96.60;;;;;;4789458;29;20054;-88
2022/10/16 07:58:53;;;;;;;2.60;0.98;;;13.80;96.50;;;;;;4789393;29;20063;-88
2022/10/16 08:01:21;;;;;;;1.98;0.90;;;14.00;96.40;;;;;;4789105;29;20055;-87
2022/10/16 08:03:52;;;;;;;2.92;0.80;;;14.00;96.30;;;;;;4789051;29;20111;-88
2022/10/16 08:06:21;;;;;;;2.92;0.80;;;14.00;96.30;;;;;;4789663;29;20138;-89
2022/10/16 08:08:55;;;;;;;3.20;0.90;;;14.10;96.30;;;;;;4789653;29;20123;-87
2022/10/16 08:11:23;;;;;;;2.45;1.00;;;14.10;96.30;;;;;;4789652;29;20055;-88
2022/10/16 08:13:50;;;;;;;2.42;1.08;;;14.20;96.30;;;;;;4789160;29;20051;-88
2022/10/16 08:16:17;;;;;;;2.10;0.80;;;14.30;96.10;;;;;;4789361;29;20043;-88
2022/10/16 08:18:45;;;;;;;2.65;0.90;;;14.40;96.10;;;;;;4789465;29;20058;-87
2022/10/16 08:21:17;;;;;;;2.33;0.93;;;14.40;96.10;;;;;;4788858;29;20058;-88
2022/10/16 08:23:47;;;;;;;3.30;0.80;;;14.40;96.00;;;;;;4788928;29;20111;-88
2022/10/16 08:26:25;;;;;;;2.22;0.80;;;14.50;96.00;;;;;;4789411;29;20504;-84
2022/10/16 08:28:52;;;;;;;2.35;1.10;;;14.60;95.90;;;;;;4788502;29;20497;-86
2022/10/16 08:31:20;;;;;;;5.57;1.30;;;14.70;95.80;;;;;;4788620;29;20058;-86
2022/10/16 08:33:47;;;;;;;3.17;1.20;;;14.70;95.80;;;;;;4789040;29;20057;-88
2022/10/16 08:36:15;;;;;;;3.33;1.10;;;14.70;95.70;;;;;;4788745;29;20130;-88
2022/10/16 08:38:43;;;;;;;5.20;1.80;;;14.80;95.70;;;;;;4789029;29;20051;-89
2022/10/16 08:41:10;;;;;;;2.92;0.80;;;14.80;95.40;;;;;;4789387;29;20416;-92
2022/10/16 08:44:02;;;;;;;3.10;1.00;;;14.80;95.50;;;;;;4788888;29;20062;-88
2022/10/16 08:46:38;;;;;;;8.45;2.03;;;14.70;95.50;;;;;;4788069;29;20062;-81
2022/10/16 08:49:12;;;;;;;4.50;1.73;;;14.70;95.40;;;;;;4788355;29;20067;-87
2022/10/16 08:51:40;;;;;;;3.15;1.10;;;14.60;95.40;;;;;;4788374;29;20547;-88
2022/10/16 08:54:30;;;;;;;2.88;1.30;;;14.60;95.50;;;;;;4788200;29;20051;-86
2022/10/16 08:57:07;;;;;;;6.38;1.50;;;14.60;95.50;;;;;;4788372;29;20508;-86
2022/10/16 08:59:34;;;;;;;3.90;1.20;;;14.60;95.50;;;;;;4776141;30;20085;-85
2022/10/16 09:02:01;;;;;;;5.28;1.25;;;14.60;95.60;;;;;;4787889;29;20094;-85
2022/10/16 09:05:03;;;;;;;2.95;1.30;;;14.60;95.60;;;;;;4787983;29;20063;-87
2022/10/16 09:07:49;;;;;;;5.22;1.27;;;14.60;95.30;;;;;;4784769;30;20059;-87
2022/10/16 09:10:19;;;;;;;4.40;1.00;;;14.70;95.20;;;;;;4788201;29;20394;-87
2022/10/16 09:13:02;;;;;;;3.92;1.10;;;14.70;95.30;;;;;;4788145;29;20082;-87
2022/10/16 09:15:34;;;;;;;1.85;0.82;;;14.70;95.20;;;;;;4788242;29;20051;-89
2022/10/16 09:18:20;;;;;;;;;;;14.70;95.30;;;;;;4789441;29;20390;-89
2022/10/16 09:21:01;;;;;;;2.65;0.90;;;14.60;95.20;;;;;;4788639;29;19937;-89
2022/10/16 09:23:30;;;;;;;4.85;1.52;;;14.70;95.10;;;;;;4788999;29;20094;-90
2022/10/16 09:25:58;;;;;;;2.53;1.08;;;14.70;95.10;;;;;;4773700;30;20061;-89
2022/10/16 09:28:26;;;;;;;2.38;0.68;;;14.70;94.90;;;;;;4788695;29;20142;-89
2022/10/16 09:30:54;;;;;;;1.50;0.70;;;14.70;95.00;;;;;;4788517;29;20050;-89
2022/10/16 09:33:25;;;;;;;3.47;1.00;;;14.70;95.00;;;;;;4788475;29;20051;-89
2022/10/16 09:35:55;;;;;;;2.97;0.68;;;14.80;94.90;;;;;;4787929;29;20066;-88
2022/10/16 09:38:31;;;;;;;3.63;1.00;;;14.80;94.80;;;;;;4787847;29;20054;-89
2022/10/16 09:41:24;;;;;;;4.47;1.38;;;14.80;94.80;;;;;;4788241;29;20077;-89
2022/10/16 09:43:59;;;;;;;4.47;1.10;;;14.90;94.50;;;;;;4791207;29;20569;-87
2022/10/16 09:46:33;;;;;;;4.00;0.85;;;14.90;94.40;;;;;;4787734;29;20078;-87
2022/10/16 09:49:23;;;;;;;4.25;1.05;;;15.00;94.30;;;;;;4784773;29;20059;-88
2022/10/16 09:52:02;;;;;;;4.20;1.02;;;15.00;94.20;;;;;;4769973;29;20409;-89
2022/10/16 09:54:29;;;;;;;6.70;0.90;;;15.00;94.30;;;;;;4784285;29;20047;-87
2022/10/16 09:57:12;;;;;;;3.55;0.70;;;15.10;94.30;;;;;;4769826;29;20067;-89
2022/10/16 09:59:50;;;;;;;4.85;0.57;;;15.10;94.30;;;;;;4784707;29;20110;-88
2022/10/16 10:02:23;;;;;;;4.63;1.00;;;15.00;94.40;;;;;;4769844;30;20497;-87
2022/10/16 10:04:51;;;;;;;;;;;15.10;94.30;;;;;;4770143;29;20113;-89
2022/10/16 10:07:26;;;;;;;3.13;0.68;;;15.10;94.10;;;;;;4785123;29;19932;-88
2022/10/16 10:09:56;;;;;;;4.68;0.70;;;15.10;94.10;;;;;;4769770;29;20132;-88
2022/10/16 10:12:31;;;;;;;4.03;0.80;;;15.20;94.10;;;;;;4769154;29;20109;-88
2022/10/16 10:15:06;;;;;;;4.47;0.80;;;15.30;94.00;;;;;;4755025;30;20159;-86
2022/10/16 10:17:34;;;;;;;3.80;0.60;;;15.30;94.00;;;;;;4769546;30;20048;-87
2022/10/16 10:20:25;;;;;;;3.13;0.90;;;15.30;94.10;;;;;;4769890;29;20101;-88
2022/10/16 10:22:52;;;;;;;5.53;0.60;;;15.40;93.90;;;;;;4783583;29;20055;-84
2022/10/16 10:25:30;;;;;;;5.28;1.13;;;15.40;94.00;;;;;;4768617;30;20047;-84
2022/10/16 10:28:13;;;;;;;4.47;0.50;;;15.40;94.00;;;;;;4768753;30;20059;-84
2022/10/16 10:31:06;;;;;;;1.75;0.35;;;15.50;94.00;;;;;;4783592;29;20060;-84
2022/10/16 10:33:59;;;;;;;2.97;0.52;;;15.50;94.00;;;;;;4756824;30;20521;-84
2022/10/16 10:36:36;;;;;;;5.18;1.55;;;15.60;94.20;;;;;;4771953;29;20047;-84
2022/10/16 10:39:17;;;;;;;3.67;0.52;;;15.60;93.60;;;;;;4783534;29;20048;-81
2022/10/16 10:42:02;;;;;;;7.00;0.70;;;15.70;93.60;;;;;;4781520;29;20122;-85
2022/10/16 10:44:32;;;;;;;5.55;0.90;;;15.80;93.50;;;;;;4783695;29;20048;-86
2022/10/16 10:47:31;;;;;;;3.72;0.43;;;15.90;93.50;;;;;;4783584;29;20056;-87
2022/10/16 10:50:43;;;;;;;8.98;0.90;;;16.00;93.40;;;;;;4768600;29;20142;-86
2022/10/16 10:53:31;;;;;;;4.32;0.52;;;16.10;92.90;;;;;;4761804;30;20105;-87
2022/10/16 10:56:20;;;;;;;6.43;0.63;;;16.10;92.90;;;;;;4768512;29;20057;-86
2022/10/16 10:59:06;;;;;;;10.75;0.98;;;16.20;93.00;;;;;;4769097;29;20076;-87
2022/10/16 11:02:00;;;;;;;2.65;0.57;;;16.20;92.20;;;;;;4783685;29;20059;-85
2022/10/16 11:04:46;;;;;;;5.10;0.60;;;16.40;91.60;;;;;;4753892;30;20051;-86
2022/10/16 11:07:20;;;;;;;7.88;1.05;;;16.60;91.50;;;;;;4765919;29;20517;-86
2022/10/16 11:09:59;;;;;;;6.07;0.70;;;16.60;90.90;;;;;;4768648;30;20055;-88
2022/10/16 11:13:01;;;;;;;2.88;0.80;;;16.70;91.10;;;;;;4768611;29;20143;-86
2022/10/16 11:15:45;;;;;;;5.53;0.50;;;16.80;90.90;;;;;;4783169;29;20085;-83
2022/10/16 11:18:19;;;;;;;2.78;0.68;;;16.90;91.00;;;;;;4783405;29;20063;-86
2022/10/16 11:21:04;;;;;;;2.92;0.40;;;17.00;90.90;;;;;;4768228;29;20056;-87
2022/10/16 11:23:50;;;;;;;7.05;0.50;;;17.20;90.80;;;;;;4774651;29;20056;-86
2022/10/16 11:26:23;;;;;;;8.43;1.00;;;17.30;90.00;;;;;;4769157;30;20071;-88
2022/10/16 11:28:54;;;;;;;4.75;0.57;;;17.20;88.80;;;;;;4772400;30;20150;-87
2022/10/16 11:31:33;;;;;;;5.40;0.75;;;17.20;89.20;;;;;;4786663;29;20062;-86
2022/10/16 11:34:22;;;;;;;4.60;0.70;;;17.20;89.40;;;;;;4786842;29;20048;-89
2022/10/16 11:37:09;;;;;;;6.82;0.73;;;17.20;88.60;;;;;;4772054;29;20080;-89
2022/10/16 11:39:42;;;;;;;6.93;0.60;;;17.20;88.10;;;;;;4785719;29;20050;-88
2022/10/16 11:42:21;;;;;;;7.18;0.98;;;17.20;87.60;;;;;;4786477;29;20056;-89
2022/10/16 11:45:11;;;;;;;6.90;0.90;;;17.30;87.00;;;;;;4770846;29;20089;-88
2022/10/16 11:47:51;;;;;;;6.75;1.08;;;17.40;86.30;;;;;;4770499;30;20121;-86
2022/10/16 11:50:41;;;;;;;2.88;0.63;;;17.40;86.60;;;;;;4770092;30;20056;-87
2022/10/16 11:53:26;;;;;;;;;;;17.50;86.60;;;;;;4784189;29;20609;-85
2022/10/16 11:55:54;;;;;;;2.75;0.50;;;17.50;86.40;;;;;;4770668;30;19941;-87
2022/10/16 11:59:21;;;;;;;;;;;;;;;;;;;;;
2022/10/16 12:02:23;;;;;;;2.78;0.40;;;17.60;86.50;;;;;;4767758;30;20150;-93
2022/10/16 12:05:16;;;;;;;4.38;0.50;;;17.60;86.10;;;;;;4792495;29;20071;-85
2022/10/16 12:08:01;;;;;;;7.63;1.00;;;17.50;86.10;;;;;;4768873;30;20054;-88
2022/10/16 12:10:43;;;;;;;4.05;0.70;;;17.40;85.40;;;;;;4771610;29;20505;-90
2022/10/16 12:13:56;;;;;;;4.97;0.70;;;17.40;84.60;;;;;;4756924;30;20105;-89
2022/10/16 12:16:24;;;;;;;6.93;1.15;;;17.30;84.60;;;;;;4770251;30;20113;-83
2022/10/16 12:19:13;;;;;;;4.72;1.15;;;17.30;84.40;;;;;;4785668;29;20044;-83
2022/10/16 12:21:42;;;;;;;5.70;0.93;;;17.30;84.50;;;;;;4771248;30;20113;-92
2022/10/16 12:24:42;;;;;;;5.82;0.80;;;17.20;83.20;;;;;;4771554;30;20047;-90
2022/10/16 12:27:29;;;;;;;5.35;1.15;;;17.30;83.70;;;;;;4785955;29;20119;-89
2022/10/16 12:30:00;;;;;;;5.50;1.25;;;17.30;83.50;;;;;;4770128;29;20066;-85
2022/10/16 12:32:39;;;;;;;3.97;0.65;;;17.20;83.60;;;;;;4770016;29;20047;-86
2022/10/16 12:35:30;;;;;;;3.53;0.50;;;17.30;83.70;;;;;;4768533;30;20101;-82
2022/10/16 12:38:12;;;;;;;7.32;1.00;;;17.40;83.40;;;;;;4785096;29;20136;-81
2022/10/16 12:40:43;;;;;;;4.82;0.85;;;17.40;82.70;;;;;;4770588;30;20083;-89
2022/10/16 12:43:24;;;;;;;2.80;0.40;;;17.40;83.40;;;;;;4770261;29;20151;-86
2022/10/16 12:46:23;;;;;;;2.75;0.50;;;17.40;83.40;;;;;;4770369;29;20047;-87
2022/10/16 12:48:51;;;;;;;1.70;0.38;;;17.50;83.40;;;;;;4770366;30;20060;-85
2022/10/16 12:51:36;;;;;;;2.63;0.40;;;17.40;83.60;;;;;;4770428;29;20047;-86
2022/10/16 12:54:31;;;;;;;6.85;0.60;;;17.40;84.00;;;;;;4770641;29;20055;-87
2022/10/16 12:57:19;;;;;;;2.08;0.35;;;17.40;84.30;;;;;;4767545;30;20058;-88
2022/10/16 13:00:05;;;;;;;3.30;0.40;;;17.30;84.70;;;;;;4766589;30;20109;-88
2022/10/16 13:03:07;;;;;;;4.68;0.50;;;17.20;83.50;;;;;;4770529;30;20482;-85
2022/10/16 13:09:17;;;;;;;3.63;0.60;;;17.40;82.00;;;;;;4784788;29;20059;-87
2022/10/16 13:12:03;;;;;;;2.70;0.50;;;17.40;82.00;;;;;;4769787;29;20051;-86
2022/10/16 13:14:34;;;;;;;4.00;0.55;;;17.40;82.00;;;;;;4769890;29;20062;-87
2022/10/16 13:17:23;;;;;;;4.13;0.47;;;17.50;81.30;;;;;;4770789;29;20067;-88
2022/10/16 13:20:14;;;;;;;6.00;0.43;;;17.50;81.60;;;;;;4770494;29;20505;-87
2022/10/16 13:23:08;;;;;;;3.85;0.40;;;17.50;82.00;;;;;;4771590;29;20502;-87
2022/10/16 13:26:06;;;;;;;2.65;0.95;;;17.40;82.00;;;;;;4770293;29;20055;-91
2022/10/16 13:28:38;;;;;;;4.43;0.82;;;17.50;82.20;;;;;;4770842;29;21003;-87